Time;durP1;ratioP1;P1;durP2;ratioP2;P2;SDS_P1;SDS_P2;PMS_P1;PMS_P2;Temp;Humidity;BMP_temperature;BMP_pressure;BME280_temperature;BME280_humidity;BME280_pressure;Samples;Min_cycle;Max_cycle;Signal;HPM_P1;HPM_P2
2021/03/26 00:00:15;;;;;;;8.40;1.00;;;;;;;7.21;100.00;99156.69;5018899;28;20425;-83
2021/03/26 00:03:23;;;;;;;2.22;0.50;;;;;;;7.13;100.00;99159.03;5021224;28;20080;-82
2021/03/26 00:06:29;;;;;;;4.38;0.57;;;;;;;7.04;100.00;99156.31;5018986;28;20413;-83
2021/03/26 00:09:35;;;;;;;1.67;0.57;;;;;;;6.94;100.00;99157.59;5009666;28;20057;-82
2021/03/26 00:12:39;;;;;;;14.35;1.50;;;;;;;6.88;100.00;99148.41;5011027;28;20073;-82
2021/03/26 00:15:43;;;;;;;3.22;0.98;;;;;;;6.87;100.00;99150.38;5010513;28;20069;-83
2021/03/26 00:18:47;;;;;;;0.43;0.43;;;;;;;6.86;100.00;99148.09;5010497;28;20069;-82
2021/03/26 00:21:51;;;;;;;3.30;0.70;;;;;;;6.82;100.00;99139.19;5010026;28;20060;-83
2021/03/26 00:24:55;;;;;;;0.50;0.50;;;;;;;6.80;100.00;99138.88;5010782;28;20149;-83
2021/03/26 00:27:58;;;;;;;4.40;1.27;;;;;;;6.77;100.00;99131.53;5010680;28;20057;-83
2021/03/26 00:31:02;;;;;;;13.55;1.13;;;;;;;6.84;100.00;99133.97;5010255;28;20061;-83
2021/03/26 00:34:06;;;;;;;6.78;0.85;;;;;;;6.95;100.00;99134.22;4995646;28;20066;-83
2021/03/26 00:37:09;;;;;;;2.28;0.30;;;;;;;7.00;100.00;99130.81;4990926;28;20065;-82
2021/03/26 00:40:16;;;;;;;5.60;1.55;;;;;;;7.00;100.00;99125.25;5001634;28;20057;-82
2021/03/26 00:43:21;;;;;;;0.82;0.60;;;;;;;6.95;100.00;99114.84;5003505;28;20061;-83
2021/03/26 00:46:25;;;;;;;2.15;1.08;;;;;;;6.90;100.00;99109.94;5001009;28;20081;-83
2021/03/26 00:49:30;;;;;;;11.30;1.08;;;;;;;6.82;100.00;99114.28;4992623;28;20057;-83
2021/03/26 00:52:33;;;;;;;0.40;0.40;;;;;;;6.81;100.00;99107.22;5010535;28;20065;-82
2021/03/26 00:55:37;;;;;;;1.70;0.50;;;;;;;6.82;100.00;99095.66;4997084;28;20073;-82
2021/03/26 00:58:41;;;;;;;0.75;0.75;;;;;;;6.83;100.00;99096.44;5009555;28;20065;-82
2021/03/26 01:01:44;;;;;;;1.70;0.93;;;;;;;6.82;100.00;99081.09;5003776;28;20065;-83
2021/03/26 01:04:48;;;;;;;2.50;0.90;;;;;;;6.87;100.00;99077.66;5001123;28;20065;-83
2021/03/26 01:07:52;;;;;;;0.88;0.85;;;;;;;6.94;100.00;99066.25;5002603;28;20512;-83
2021/03/26 01:11:03;;;;;;;15.52;1.02;;;;;;;6.98;100.00;99057.75;5018214;28;20069;-82
2021/03/26 01:14:11;;;;;;;;;;;;;;;6.96;100.00;99058.25;5030345;28;20064;-83
2021/03/26 01:17:15;;;;;;;0.63;0.63;;;;;;;6.90;100.00;99043.53;5018340;28;20381;-81
2021/03/26 01:20:24;;;;;;;1.25;0.32;;;;;;;6.92;100.00;99052.13;5029040;28;20064;-82
2021/03/26 01:23:29;;;;;;;4.10;0.98;;;;;;;6.88;100.00;99046.00;5024583;28;20060;-83
2021/03/26 01:26:32;;;;;;;0.55;0.55;;;;;;;6.87;100.00;99038.91;5002615;28;20792;-83
2021/03/26 01:29:36;;;;;;;1.77;0.82;;;;;;;6.87;100.00;99034.16;4989005;28;20077;-81
2021/03/26 01:32:40;;;;;;;1.13;1.00;;;;;;;6.90;100.00;99024.16;4989935;28;20529;-83
2021/03/26 01:35:44;;;;;;;2.60;1.00;;;;;;;6.94;100.00;99019.19;5002355;28;20062;-83
2021/03/26 01:38:47;;;;;;;1.73;0.85;;;;;;;6.94;100.00;99010.91;5013365;28;20756;-83
2021/03/26 01:41:51;;;;;;;2.58;1.00;;;;;;;6.93;100.00;99009.34;5013614;28;20060;-83
2021/03/26 01:44:55;;;;;;;1.63;1.00;;;;;;;6.94;100.00;99010.91;5002774;28;20137;-82
2021/03/26 01:47:59;;;;;;;1.08;0.82;;;;;;;6.94;100.00;99010.91;5003516;28;20069;-82
2021/03/26 01:51:07;;;;;;;5.47;1.15;;;;;;;6.96;100.00;98997.34;5003920;28;20061;-82
2021/03/26 01:54:15;;;;;;;6.65;2.05;;;;;;;6.98;100.00;99000.41;5004919;28;20081;-82
2021/03/26 01:57:19;;;;;;;0.98;0.50;;;;;;;6.99;100.00;99004.72;5006184;28;20057;-82
2021/03/26 02:00:34;;;;;;;3.08;1.33;;;;;;;7.01;100.00;99005.00;5009883;28;20112;-82
2021/03/26 02:03:43;;;;;;;3.78;0.45;;;;;;;7.02;100.00;98998.22;5009531;28;20109;-83
2021/03/26 02:06:51;;;;;;;1.83;1.15;;;;;;;6.99;100.00;98990.88;5004729;28;20057;-85
2021/03/26 02:09:54;;;;;;;0.50;0.50;;;;;;;6.93;100.00;98983.69;5029180;28;20064;-83
2021/03/26 02:13:16;;;;;;;4.15;0.85;;;;;;;6.87;100.00;98984.34;5027980;28;20080;-82
2021/03/26 02:16:21;;;;;;;1.02;1.02;;;;;;;6.89;100.00;98981.09;5027099;28;20056;-82
2021/03/26 02:19:40;;;;;;;2.80;1.13;;;;;;;6.95;100.00;98976.47;5040093;28;20061;-83
2021/03/26 02:22:44;;;;;;;4.03;1.02;;;;;;;6.99;100.00;98971.50;5028983;28;20064;-82
2021/03/26 02:25:49;;;;;;;3.22;1.23;;;;;;;7.05;100.00;98971.59;5029517;28;20068;-84
2021/03/26 02:28:53;;;;;;;3.53;0.98;;;;;;;7.13;100.00;98973.53;5027634;28;20068;-83
2021/03/26 02:32:09;;;;;;;1.50;1.40;;;;;;;7.15;100.00;98948.91;5028318;28;20060;-83
2021/03/26 02:35:16;;;;;;;14.55;1.30;;;;;;;7.21;100.00;98938.69;5027468;28;20060;-82
2021/03/26 02:38:27;;;;;;;1.60;1.30;;;;;;;7.24;100.00;98929.47;5026494;28;20064;-81
2021/03/26 02:41:34;;;;;;;0.95;0.93;;;;;;;7.28;100.00;98924.50;5028448;28;20069;-83
2021/03/26 02:45:05;;;;;;;1.42;0.98;;;;;;;7.33;100.00;98921.06;5027558;28;20524;-82
2021/03/26 02:48:16;;;;;;;0.77;0.77;;;;;;;7.39;100.00;98916.38;5027454;28;20056;-83
2021/03/26 02:51:40;;;;;;;1.13;0.50;;;;;;;7.41;100.00;98916.66;5027688;28;20433;-82
2021/03/26 02:54:57;;;;;;;3.03;1.60;;;;;;;7.45;100.00;98911.69;5029579;28;20521;-81
2021/03/26 02:58:06;;;;;;;4.20;0.65;;;;;;;7.43;100.00;98914.19;5027827;28;20060;-83
2021/03/26 03:01:39;;;;;;;2.55;1.27;;;;;;;7.43;100.00;98897.56;5029440;28;20056;-83
2021/03/26 03:04:47;;;;;;;0.77;0.75;;;;;;;7.38;100.00;98881.63;5029963;28;20512;-82
2021/03/26 03:07:56;;;;;;;10.00;0.80;;;;;;;7.33;100.00;98875.97;5011473;28;20767;-82
2021/03/26 03:11:07;;;;;;;1.42;1.08;;;;;;;7.32;100.00;98880.75;5010938;28;20061;-81
2021/03/26 03:14:20;;;;;;;5.83;1.07;;;;;;;7.30;100.00;98882.47;4990486;28;20065;-81
2021/03/26 03:17:29;;;;;;;1.75;0.63;;;;;;;7.22;100.00;98875.78;5016885;28;20065;-83
2021/03/26 03:20:48;;;;;;;0.45;0.45;;;;;;;7.10;100.00;98874.84;5009626;28;20061;-81
2021/03/26 03:23:57;;;;;;;3.67;0.60;;;;;;;7.01;100.00;98863.84;4991017;28;20065;-81
2021/03/26 03:27:19;;;;;;;0.73;0.60;;;;;;;6.98;100.00;98870.31;5006260;28;20057;-82
2021/03/26 03:31:01;;;;;;;2.95;0.88;;;;;;;6.89;100.00;98862.09;4990440;28;20099;-82
2021/03/26 03:34:20;;;;;;;0.93;0.60;;;;;;;6.85;100.00;98856.75;4998234;28;20065;-82
2021/03/26 03:37:39;;;;;;;0.77;0.77;;;;;;;6.82;100.00;98860.47;5009738;28;20061;-82
2021/03/26 03:41:01;;;;;;;0.40;0.22;;;;;;;6.82;100.00;98854.19;5010156;28;20061;-81
2021/03/26 03:44:12;;;;;;;4.60;0.95;;;;;;;6.80;100.00;98856.63;4990612;28;20121;-81
2021/03/26 03:48:02;;;;;;;5.30;1.60;;;;;;;6.76;100.00;98848.53;5010351;28;20065;-80
2021/03/26 03:51:20;;;;;;;4.53;1.48;;;;;;;6.74;100.00;98845.47;4953909;28;20289;-81
2021/03/26 03:54:57;;;;;;;1.42;1.10;;;;;;;6.65;100.00;98836.47;4993303;28;20537;-81
2021/03/26 03:58:14;;;;;;;5.85;1.23;;;;;;;6.58;100.00;98826.53;5004544;28;20066;-81
2021/03/26 04:01:28;;;;;;;9.43;1.48;;;;;;;6.52;100.00;98819.41;4992953;28;20057;-81
2021/03/26 04:04:40;;;;;;;2.25;0.55;;;;;;;6.48;100.00;98814.03;4993765;28;20077;-81
2021/03/26 04:08:06;;;;;;;5.25;0.80;;;;;;;6.44;100.00;98818.97;5016495;28;20080;-81
2021/03/26 04:11:24;;;;;;;5.75;1.25;;;;;;;6.45;100.00;98803.16;5039431;28;20532;-80
2021/03/26 04:14:33;;;;;;;0.35;0.35;;;;;;;6.49;100.00;98815.56;5029962;28;20111;-80
2021/03/26 04:18:09;;;;;;;1.63;1.45;;;;;;;6.48;100.00;98807.72;5032069;28;20084;-80
2021/03/26 04:21:18;;;;;;;5.15;0.70;;;;;;;6.49;100.00;98803.72;5032960;28;20084;-80
2021/03/26 04:24:46;;;;;;;0.90;0.85;;;;;;;6.52;100.00;98797.28;5042755;28;20061;-80
2021/03/26 04:28:02;;;;;;;0.82;0.80;;;;;;;6.54;100.00;98784.47;5025297;28;20060;-80
2021/03/26 04:31:10;;;;;;;0.75;0.75;;;;;;;6.59;100.00;98781.06;5043573;28;20057;-81
2021/03/26 04:34:15;;;;;;;0.73;0.50;;;;;;;6.63;100.00;98786.38;5042591;28;20068;-80
2021/03/26 04:37:30;;;;;;;1.52;0.98;;;;;;;6.66;100.00;98772.41;5031990;28;20501;-81
2021/03/26 04:40:39;;;;;;;0.80;0.32;;;;;;;6.65;100.00;98761.78;5032649;28;20143;-81
2021/03/26 04:43:45;;;;;;;10.23;0.95;;;;;;;6.67;100.00;98757.31;5024389;28;20064;-81
2021/03/26 04:47:01;;;;;;;6.43;1.38;;;;;;;6.66;100.00;98753.03;5025467;28;20061;-81
2021/03/26 04:50:18;;;;;;;1.85;0.95;;;;;;;6.67;100.00;98745.50;5032553;28;20065;-81
2021/03/26 04:53:26;;;;;;;11.45;1.38;;;;;;;6.69;100.00;98741.00;5031547;28;20429;-81
2021/03/26 04:56:38;;;;;;;2.78;1.15;;;;;;;6.71;100.00;98741.28;5032276;28;20065;-81
2021/03/26 04:59:49;;;;;;;0.82;0.52;;;;;;;6.74;100.00;98737.56;5031482;28;20076;-81
2021/03/26 05:03:02;;;;;;;0.90;0.68;;;;;;;6.75;100.00;98738.34;5025315;28;20452;-81
2021/03/26 05:06:18;;;;;;;1.13;1.05;;;;;;;6.80;100.00;98727.34;5023314;28;20056;-81
2021/03/26 05:09:27;;;;;;;1.17;0.45;;;;;;;6.85;100.00;98729.47;5002380;28;20516;-81
2021/03/26 05:12:36;;;;;;;0.95;0.93;;;;;;;6.88;100.00;98731.28;5022862;28;20108;-81
2021/03/26 05:15:45;;;;;;;2.55;1.33;;;;;;;6.88;100.00;98724.97;5004232;28;20422;-81
2021/03/26 05:18:55;;;;;;;0.73;0.73;;;;;;;6.93;100.00;98720.78;4996564;28;20414;-81
2021/03/26 05:22:23;;;;;;;0.77;0.50;;;;;;;6.95;100.00;98719.06;4997986;28;20414;-81
2021/03/26 05:25:35;;;;;;;1.50;0.88;;;;;;;6.99;100.00;98714.09;5003458;28;20077;-81
2021/03/26 05:28:42;;;;;;;1.42;0.88;;;;;;;6.98;100.00;98707.03;5011804;28;20064;-81
2021/03/26 05:31:48;;;;;;;0.65;0.65;;;;;;;7.02;100.00;98707.59;4996080;28;20069;-82
2021/03/26 05:35:01;;;;;;;2.50;1.15;;;;;;;7.07;100.00;98698.63;4996751;28;20072;-81
2021/03/26 05:38:08;;;;;;;0.82;0.82;;;;;;;7.05;100.00;98683.72;5003612;28;20061;-81
2021/03/26 05:41:17;;;;;;;0.90;0.85;;;;;;;7.02;100.00;98690.97;5002775;28;20072;-81
2021/03/26 05:44:58;;;;;;;3.35;1.20;;;;;;;7.06;100.00;98668.66;5003171;28;20061;-81
2021/03/26 05:48:24;;;;;;;10.52;0.57;;;;;;;7.08;100.00;98666.91;5003720;28;20675;-79
2021/03/26 05:51:55;;;;;;;0.50;0.50;;;;;;;7.09;100.00;98667.69;5011584;28;20077;-86
2021/03/26 05:55:27;;;;;;;1.58;1.05;;;;;;;7.09;100.00;98662.91;4991217;28;20085;-85
2021/03/26 05:59:04;;;;;;;8.20;1.23;;;;;;;7.14;100.00;98665.00;5011117;28;20056;-85
2021/03/26 06:02:48;;;;;;;6.93;1.17;;;;;;;7.17;100.00;98664.03;5009423;28;20081;-84
2021/03/26 06:05:57;;;;;;;2.22;0.85;;;;;;;7.21;100.00;98664.59;5008860;28;20061;-83
2021/03/26 06:09:28;;;;;;;0.50;0.50;;;;;;;7.22;100.00;98659.81;5010215;28;20061;-80
2021/03/26 06:12:56;;;;;;;1.48;0.98;;;;;;;7.24;100.00;98663.63;5000441;28;20065;-85
2021/03/26 06:16:41;;;;;;;6.35;0.77;;;;;;;7.32;100.00;98664.00;4994686;28;20414;-83
2021/03/26 06:20:12;;;;;;;5.68;0.75;;;;;;;7.33;100.00;98660.75;5008415;28;20414;-82
2021/03/26 06:23:46;;;;;;;2.50;1.23;;;;;;;7.32;100.00;98641.84;4998981;28;20071;-84
2021/03/26 06:26:56;;;;;;;9.50;1.23;;;;;;;7.28;100.00;98642.03;5010426;28;20422;-84
2021/03/26 06:30:12;;;;;;;2.38;1.52;;;;;;;7.26;100.00;98638.22;5009753;28;20060;-84
2021/03/26 06:33:34;;;;;;;1.50;1.25;;;;;;;7.22;100.00;98632.13;5010564;28;20529;-85
2021/03/26 06:36:44;;;;;;;7.45;1.90;;;;;;;7.22;100.00;98637.66;5001597;28;20076;-85
2021/03/26 06:40:13;;;;;;;2.67;0.88;;;;;;;7.20;100.00;98643.69;4995518;28;20065;-86
2021/03/26 06:43:45;;;;;;;6.80;1.65;;;;;;;7.25;100.00;98634.72;4981933;28;20526;-86
2021/03/26 06:47:15;;;;;;;1.75;0.68;;;;;;;7.29;100.00;98626.97;4994820;28;20066;-83
2021/03/26 06:50:40;;;;;;;0.75;0.73;;;;;;;7.36;100.00;98615.47;4997819;28;20065;-84
2021/03/26 06:53:59;;;;;;;2.88;1.45;;;;;;;7.37;100.00;98600.38;4992867;28;20073;-84
2021/03/26 06:57:24;;;;;;;9.80;1.23;;;;;;;7.42;100.00;98602.47;4995569;28;20065;-84
2021/03/26 07:00:43;;;;;;;3.03;1.27;;;;;;;7.54;100.00;98595.81;5000674;28;20089;-84
2021/03/26 07:03:54;;;;;;;2.80;0.63;;;;;;;7.66;100.00;98591.16;4998466;28;20069;-81
2021/03/26 07:07:29;;;;;;;2.28;0.85;;;;;;;7.77;100.00;98593.28;5008134;28;20414;-83
2021/03/26 07:10:55;;;;;;;5.90;1.80;;;;;;;7.81;100.00;98582.75;5024217;28;20064;-82
2021/03/26 07:14:09;;;;;;;3.22;0.82;;;;;;;7.82;100.00;98567.66;5017355;28;20065;-82
2021/03/26 07:17:25;;;;;;;3.65;0.88;;;;;;;7.82;100.00;98557.31;5018200;28;20088;-83
2021/03/26 07:20:38;;;;;;;1.17;1.00;;;;;;;7.77;100.00;98566.34;5017768;28;20060;-82
2021/03/26 07:23:47;;;;;;;6.22;0.63;;;;;;;7.73;100.00;98567.81;5019554;28;20061;-81
2021/03/26 07:27:14;;;;;;;2.60;0.95;;;;;;;7.70;100.00;98555.69;5022113;28;20068;-83
2021/03/26 07:30:18;;;;;;;7.45;1.52;;;;;;;7.82;100.00;98564.91;5024077;28;20521;-85
2021/03/26 07:33:28;;;;;;;3.88;1.38;;;;;;;7.94;100.00;98563.75;5022997;28;20057;-86
2021/03/26 07:36:49;;;;;;;13.63;1.58;;;;;;;7.99;100.00;98571.38;5014282;28;20418;-85
2021/03/26 07:39:55;;;;;;;2.42;1.02;;;;;;;8.02;100.00;98571.13;5032285;28;20081;-84
2021/03/26 07:43:20;;;;;;;0.63;0.50;;;;;;;8.12;100.00;98552.34;5020675;28;20525;-85
2021/03/26 07:46:42;;;;;;;0.88;0.45;;;;;;;8.30;100.00;98546.44;5021485;28;20069;-85
2021/03/26 07:50:01;;;;;;;;;;;;;;;8.38;100.00;98542.75;5032097;28;20076;-85
2021/03/26 07:53:29;;;;;;;8.30;0.77;;;;;;;8.52;100.00;98526.44;5032669;28;19921;-85
2021/03/26 07:56:57;;;;;;;4.03;0.50;;;;;;;8.58;100.00;98525.22;5019583;28;20540;-86
2021/03/26 08:00:07;;;;;;;2.60;0.98;;;;;;;8.72;100.00;98532.66;5027011;28;20069;-85
2021/03/26 08:03:52;;;;;;;4.50;0.52;;;;;;;8.79;100.00;98543.28;5033104;28;20064;-86
2021/03/26 08:07:32;;;;;;;4.20;0.95;;;;;;;8.68;100.00;98546.00;5030987;28;20424;-85
2021/03/26 08:10:42;;;;;;;2.20;0.50;;;;;;;8.78;100.00;98521.56;4996040;28;20205;-84
2021/03/26 08:13:48;;;;;;;1.88;0.77;;;;;;;8.85;100.00;98530.22;5012214;28;20060;-85
2021/03/26 08:17:02;;;;;;;0.73;0.73;;;;;;;8.74;100.00;98535.69;5012168;28;20053;-85
2021/03/26 08:20:30;;;;;;;6.43;0.45;;;;;;;8.62;100.00;98534.09;5013056;28;20061;-85
2021/03/26 08:23:43;;;;;;;1.48;1.05;;;;;;;8.50;100.00;98537.28;4994472;28;20138;-84
2021/03/26 08:26:55;;;;;;;13.98;1.00;;;;;;;8.42;100.00;98530.66;5011672;28;20061;-85
2021/03/26 08:30:01;;;;;;;1.85;0.88;;;;;;;8.30;100.00;98540.91;5013683;28;20076;-81
2021/03/26 08:33:27;;;;;;;3.92;2.00;;;;;;;8.19;100.00;98538.78;5013017;28;20061;-84
2021/03/26 08:36:56;;;;;;;1.73;0.82;;;;;;;8.04;100.00;98545.69;5010013;28;20065;-87
2021/03/26 08:40:01;;;;;;;8.15;1.98;;;;;;;7.98;100.00;98548.41;5024016;28;20065;-89
2021/03/26 08:43:09;;;;;;;8.35;2.03;;;;;;;7.95;100.00;98559.75;5032874;28;20068;-85
2021/03/26 08:46:43;;;;;;;1.88;1.15;;;;;;;7.89;100.00;98562.44;5026903;28;20056;-85
2021/03/26 08:49:46;;;;;;;6.65;1.83;;;;;;;7.84;100.00;98560.34;5023622;28;20417;-81
2021/03/26 08:53:13;;;;;;;18.17;1.80;;;;;;;7.81;100.00;98577.22;5017687;28;20068;-85
2021/03/26 08:56:31;;;;;;;12.30;2.33;;;;;;;7.73;100.00;98587.22;5020714;28;20536;-85
2021/03/26 08:59:48;;;;;;;4.40;1.13;;;;;;;7.64;100.00;98622.09;5042514;28;20051;-85
2021/03/26 09:03:30;;;;;;;1.85;0.55;;;;;;;7.32;100.00;98612.13;5032355;28;20060;-83
2021/03/26 09:06:49;;;;;;;;;;;;;;;6.83;100.00;98609.44;5023593;28;20057;-81
2021/03/26 09:10:17;;;;;;;0.32;0.32;;;;;;;6.55;100.00;98597.16;5008177;28;19929;-84
2021/03/26 09:13:37;;;;;;;0.20;0.20;;;;;;;6.42;100.00;98602.22;5011477;28;20524;-83
2021/03/26 09:16:55;;;;;;;4.30;1.08;;;;;;;6.39;100.00;98603.22;5022048;28;20076;-82
2021/03/26 09:20:02;;;;;;;0.40;0.40;;;;;;;6.39;100.00;98597.69;5020543;28;20410;-82
2021/03/26 09:23:28;;;;;;;0.80;0.70;;;;;;;6.45;100.00;98612.34;5022514;28;20057;-82
2021/03/26 09:26:45;;;;;;;0.57;0.57;;;;;;;6.50;100.00;98606.91;5019305;28;20322;-82
2021/03/26 09:29:57;;;;;;;0.30;0.30;;;;;;;6.58;100.00;98618.34;4968518;28;20065;-88
2021/03/26 09:33:11;;;;;;;1.45;0.85;;;;;;;6.65;100.00;98623.47;4971348;28;20518;-82
2021/03/26 09:36:20;;;;;;;3.72;0.98;;;;;;;6.71;100.00;98627.84;4973599;28;20069;-82
2021/03/26 09:39:24;;;;;;;0.88;0.85;;;;;;;6.74;100.00;98629.66;4970056;28;20434;-82
2021/03/26 09:42:40;;;;;;;6.72;0.60;;;;;;;6.83;100.00;98639.88;4962335;28;20059;-81
2021/03/26 09:45:50;;;;;;;0.45;0.45;;;;;;;6.90;100.00;98639.47;4971416;28;20423;-82
2021/03/26 09:48:54;;;;;;;0.13;0.13;;;;;;;6.97;100.00;98652.94;4971643;28;20061;-80
2021/03/26 09:52:14;;;;;;;0.40;0.40;;;;;;;6.96;100.00;98645.84;4973023;28;20062;-84
2021/03/26 09:55:29;;;;;;;0.70;0.47;;;;;;;7.04;100.00;98646.97;4971359;28;20082;-84
2021/03/26 09:58:59;;;;;;;0.47;0.47;;;;;;;7.06;100.00;98657.59;4971922;28;20058;-83
2021/03/26 10:02:29;;;;;;;0.30;0.30;;;;;;;6.97;100.00;98661.22;4959856;28;20062;-83
2021/03/26 10:06:00;;;;;;;0.82;0.65;;;;;;;6.93;100.00;98666.19;4970305;28;20077;-81
2021/03/26 10:09:31;;;;;;;0.40;0.40;;;;;;;6.85;100.00;98676.88;4981697;28;20065;-80
2021/03/26 10:12:41;;;;;;;0.85;0.20;;;;;;;6.97;100.00;98671.53;4971017;28;20065;-82
2021/03/26 10:16:02;;;;;;;0.60;0.60;;;;;;;7.12;100.00;98673.03;4964045;28;20066;-81
2021/03/26 10:19:15;;;;;;;0.70;0.35;;;;;;;7.24;100.00;98683.00;4967412;28;20522;-81
2021/03/26 10:22:24;;;;;;;2.53;0.40;;;;;;;7.41;100.00;98678.47;4968335;28;20073;-80
2021/03/26 10:25:48;;;;;;;0.32;0.32;;;;;;;7.46;100.00;98680.56;4970812;28;20070;-81
2021/03/26 10:29:14;;;;;;;0.15;0.15;;;;;;;7.44;100.00;98687.84;4990433;28;20057;-81
2021/03/26 10:32:27;;;;;;;0.40;0.30;;;;;;;7.34;100.00;98709.34;5005640;28;20061;-82
2021/03/26 10:35:31;;;;;;;0.50;0.20;;;;;;;6.98;100.00;98712.56;5020458;28;20068;-82
2021/03/26 10:38:39;;;;;;;0.47;0.47;;;;;;;6.72;100.00;98722.69;5010522;28;20068;-81
2021/03/26 10:42:20;;;;;;;0.20;0.20;;;;;;;6.61;100.00;98716.94;4994556;28;20086;-82
2021/03/26 10:45:45;;;;;;;1.50;0.50;;;;;;;6.58;100.00;98721.44;4999701;28;20060;-82
2021/03/26 10:48:58;;;;;;;0.30;0.30;;;;;;;6.59;100.00;98727.72;4994694;28;20084;-80
2021/03/26 10:52:11;;;;;;;0.17;0.17;;;;;;;6.69;100.00;98729.94;4997265;28;20065;-82
2021/03/26 10:55:24;;;;;;;0.30;0.30;;;;;;;6.87;100.00;98728.97;4998726;28;20071;-81
2021/03/26 10:58:43;;;;;;;1.45;0.40;;;;;;;7.12;100.00;98722.88;4999897;28;20061;-82
2021/03/26 11:01:51;;;;;;;1.85;0.43;;;;;;;7.40;100.00;98726.81;4993637;28;20065;-87
2021/03/26 11:05:05;;;;;;;0.70;0.15;;;;;;;7.65;100.00;98731.69;5000284;28;20065;-81
2021/03/26 11:08:35;;;;;;;3.20;0.30;;;;;;;7.87;100.00;98736.00;5030014;28;20051;-86
2021/03/26 11:11:49;;;;;;;0.30;0.20;;;;;;;8.00;100.00;98733.66;5033453;28;20064;-82
2021/03/26 11:14:59;;;;;;;0.82;0.40;;;;;;;8.13;100.00;98725.75;5022016;28;20072;-81
2021/03/26 11:18:23;;;;;;;0.43;0.20;;;;;;;8.23;100.00;98735.44;5022481;28;20056;-80
2021/03/26 11:21:40;;;;;;;1.20;0.55;;;;;;;8.28;100.00;98732.00;5029742;28;20876;-78
2021/03/26 11:25:01;;;;;;;0.82;0.30;;;;;;;8.33;100.00;98728.53;5020302;28;20564;-84
2021/03/26 11:28:30;;;;;;;0.52;0.20;;;;;;;8.44;100.00;98730.69;5021759;28;20052;-80
2021/03/26 11:31:47;;;;;;;0.68;0.30;;;;;;;8.38;100.00;98719.53;5031927;28;20068;-80
2021/03/26 11:35:08;;;;;;;0.52;0.40;;;;;;;8.41;100.00;98724.09;5021849;28;20422;-79
2021/03/26 11:38:20;;;;;;;2.42;0.75;;;;;;;8.35;100.00;98712.19;5034383;28;20052;-79
2021/03/26 11:41:23;;;;;;;4.40;0.10;;;;;;;8.15;100.00;98712.16;5020729;28;20077;-78
2021/03/26 11:44:31;;;;;;;1.20;0.57;;;;;;;8.03;100.00;98716.84;5013550;28;20064;-79
2021/03/26 11:47:37;;;;;;;0.80;0.30;;;;;;;7.85;100.00;98710.78;5013299;28;20073;-79
2021/03/26 11:50:49;;;;;;;0.20;0.20;;;;;;;7.62;100.00;98712.53;5011592;28;20076;-79
2021/03/26 11:53:56;;;;;;;3.60;0.82;;;;;;;7.42;100.00;98707.72;5020673;28;20065;-80
2021/03/26 11:57:06;;;;;;;5.68;1.35;;;;;;;7.48;100.00;98711.31;5021216;28;20053;-79
2021/03/26 12:00:13;;;;;;;1.38;0.60;;;;;;;7.66;100.00;98715.84;5021158;28;20080;-79
2021/03/26 12:03:26;;;;;;;0.35;0.35;;;;;;;7.84;100.00;98717.59;5012513;28;20410;-79
2021/03/26 12:06:52;;;;;;;0.10;0.10;;;;;;;7.86;100.00;98701.25;5019451;28;20076;-79
2021/03/26 12:10:33;;;;;;;4.05;1.23;;;;;;;8.11;100.00;98717.16;5012057;28;20057;-80
2021/03/26 12:13:45;;;;;;;1.27;0.47;;;;;;;8.12;100.00;98715.94;5010704;28;20077;-79
2021/03/26 12:17:26;;;;;;;1.45;0.82;;;;;;;8.15;100.00;98698.31;4997318;28;20068;-79
2021/03/26 12:20:37;;;;;;;0.43;0.35;;;;;;;8.28;100.00;98693.19;5001429;28;20065;-80
2021/03/26 12:23:53;;;;;;;0.98;0.35;;;;;;;8.33;100.00;98689.72;5004811;28;20068;-79
2021/03/26 12:27:25;;;;;;;12.77;1.90;;;;;;;8.81;100.00;98695.47;5003258;28;20061;-80
2021/03/26 12:30:43;;;;;;;1.55;0.65;;;;;;;9.31;100.00;98698.63;5003179;28;20524;-80
2021/03/26 12:34:38;;;;;;;0.20;0.20;;;;;;;9.70;100.00;98697.59;4993215;28;20065;-79
2021/03/26 12:38:01;;;;;;;0.30;0.22;;;;;;;9.82;100.00;98695.66;4933902;28;20069;-79
2021/03/26 12:41:12;;;;;;;12.90;0.68;;;;;;;9.55;100.00;98721.28;5012351;28;20072;-79
2021/03/26 12:44:37;;;;;;;1.83;0.30;;;;;;;9.18;100.00;98714.97;5012299;28;20064;-79
2021/03/26 12:47:46;;;;;;;0.20;0.10;;;;;;;9.12;100.00;98715.66;5011572;28;20612;-78
2021/03/26 12:50:55;;;;;;;2.40;0.45;;;;;;;9.21;100.00;98722.28;5012152;28;20065;-79
2021/03/26 12:54:09;;;;;;;0.43;0.20;;;;;;;9.26;100.00;98719.56;5012250;28;20077;-78
2021/03/26 12:57:26;;;;;;;0.20;0.20;;;;;;;9.28;100.00;98721.84;5011551;28;20064;-78
2021/03/26 13:00:39;;;;;;;0.45;0.20;;;;;;;9.61;100.00;98719.28;5011517;28;20060;-79
2021/03/26 13:04:11;;;;;;;0.65;0.22;;;;;;;9.90;100.00;98716.16;5011738;28;20065;-79
2021/03/26 13:07:28;;;;;;;0.30;0.30;;;;;;;10.23;100.00;98710.75;5011809;28;20068;-81
2021/03/26 13:10:43;;;;;;;3.58;0.38;;;;;;;10.29;100.00;98713.53;5020586;28;20065;-80
2021/03/26 13:14:03;;;;;;;2.75;0.20;;;;;;;10.28;100.00;98710.03;5034485;28;20064;-80
2021/03/26 13:17:25;;;;;;;2.63;0.25;;;;;;;10.12;100.00;98702.38;5031505;28;20111;-80
2021/03/26 13:20:30;;;;;;;1.88;0.20;;;;;;;9.98;100.00;98706.09;5019071;28;20056;-80
2021/03/26 13:23:37;;;;;;;0.30;0.28;;;;;;;9.87;100.00;98711.59;5011912;28;20061;-80
2021/03/26 13:26:40;;;;;;;0.10;0.10;;;;;;;9.81;100.00;98719.16;5010998;28;20410;-80
2021/03/26 13:30:17;;;;;;;0.40;0.10;;;;;;;9.88;100.00;98729.78;5019808;28;20077;-79
2021/03/26 13:33:35;;;;;;;0.25;0.25;;;;;;;9.88;100.00;98729.78;5018459;28;20065;-79
2021/03/26 13:36:44;;;;;;;0.10;0.10;;;;;;;9.99;100.00;98712.41;5011512;28;20065;-79
2021/03/26 13:40:06;;;;;;;0.10;0.10;;;;;;;10.02;100.00;98712.19;5019720;28;20076;-81
2021/03/26 13:43:18;;;;;;;0.10;0.10;;;;;;;10.09;100.00;98706.13;5011637;28;20117;-79
2021/03/26 13:46:29;;;;;;;0.28;0.20;;;;;;;10.11;100.00;98703.66;5021646;28;20060;-80
2021/03/26 13:49:33;;;;;;;0.20;0.13;;;;;;;10.27;100.00;98700.16;5029784;28;20061;-79
2021/03/26 13:52:41;;;;;;;0.52;0.30;;;;;;;10.47;100.00;98691.59;5031262;28;20064;-79
2021/03/26 13:56:16;;;;;;;0.45;0.30;;;;;;;10.51;100.00;98697.69;5010817;28;20081;-78
2021/03/26 13:59:32;;;;;;;0.57;0.20;;;;;;;10.24;100.00;98709.50;5019435;28;20076;-79
2021/03/26 14:02:41;;;;;;;0.30;0.20;;;;;;;10.20;100.00;98700.63;5012356;28;20513;-79
2021/03/26 14:05:46;;;;;;;6.43;0.50;;;;;;;10.26;100.00;98715.34;5019297;28;20517;-80
2021/03/26 14:08:52;;;;;;;1.05;0.17;;;;;;;10.44;100.00;98703.72;4996767;28;20509;-82
2021/03/26 14:12:18;;;;;;;0.20;0.20;;;;;;;10.37;100.00;98709.78;5004394;28;20069;-80
2021/03/26 14:15:27;;;;;;;0.40;0.40;;;;;;;10.08;100.00;98721.28;5003320;28;20057;-81
2021/03/26 14:18:34;;;;;;;3.60;0.20;;;;;;;9.84;100.00;98718.16;5001413;28;20060;-83
2021/03/26 14:21:52;;;;;;;1.30;0.30;;;;;;;9.79;100.00;98727.97;5012007;28;20433;-81
2021/03/26 14:24:58;;;;;;;0.30;0.30;;;;;;;9.89;100.00;98723.00;5000998;28;20057;-83
2021/03/26 14:28:06;;;;;;;2.70;0.50;;;;;;;9.91;100.00;98720.47;4997048;28;20061;-82
2021/03/26 14:31:09;;;;;;;0.35;0.30;;;;;;;9.86;100.00;98718.41;4991466;28;20065;-82
2021/03/26 14:34:22;;;;;;;0.10;0.00;;;;;;;9.91;100.00;98724.00;4999069;28;20168;-83
2021/03/26 14:37:33;;;;;;;2.28;0.20;;;;;;;9.70;100.00;98719.84;4998330;28;20080;-83
2021/03/26 14:40:37;;;;;;;1.05;0.38;;;;;;;9.44;100.00;98718.44;5001012;28;20057;-87
2021/03/26 14:43:43;;;;;;;0.30;0.30;;;;;;;9.40;100.00;98723.47;5009828;28;20516;-83
2021/03/26 14:47:01;;;;;;;0.52;0.25;;;;;;;9.54;100.00;98728.09;4993106;28;20087;-82
2021/03/26 14:50:10;;;;;;;1.98;0.28;;;;;;;9.72;100.00;98716.59;4997329;28;20065;-82
2021/03/26 15:06:16;;;;;;;2.50;0.60;;;;;;;10.07;100.00;98714.19;5069121;27;20366;-78
2021/03/26 15:09:22;;;;;;;0.95;0.30;;;;;;;9.86;100.00;98721.19;5068555;28;20047;-78
2021/03/26 15:28:53;;;;;;;1.23;0.50;;;;;;;9.42;100.00;98732.06;5110026;27;20361;-77
2021/03/26 15:32:04;;;;;;;1.10;0.80;;;;;;;9.22;100.00;98719.03;5109671;28;20498;-77
2021/03/26 15:35:31;;;;;;;0.63;0.35;;;;;;;9.00;100.00;98722.41;5109332;28;20046;-77
2021/03/26 15:38:44;;;;;;;4.15;0.75;;;;;;;9.07;100.00;98735.81;5107233;28;20047;-77
2021/03/26 15:41:54;;;;;;;2.95;0.40;;;;;;;8.95;100.00;98731.44;5111332;28;20039;-77
2021/03/26 15:45:07;;;;;;;1.85;0.28;;;;;;;8.83;100.00;98732.59;5111479;28;20067;-79
2021/03/26 15:48:45;;;;;;;0.17;0.17;;;;;;;8.79;100.00;98732.03;5110208;28;20506;-78